<?xml version="1.0" encoding="utf-8"?>
<gpx xmlns:xsi="http://www.w3.org/2001/XMLSchema-instance" xmlns:xsd="http://www.w3.org/2001/XMLSchema" version="1.1" creator="Shapelink.com" xmlns="http://www.topografix.com/GPX/1/1" xmlns:gpxtpx="http://www.garmin.com/xmlschemas/TrackPointExtension/v1">
  <metadata>
    <name>Övrigt 2.01 km, 2020-06-17</name>
    <desc></desc>
    <author><name>Marian Moron</name></author> 
    <time>2020-06-17T20:13:38Z</time>
  </metadata>
  <trk>
    <name>Övrigt 2.01 km, 2020-06-17</name>
    <trkseg>
      <trkpt lat="51.229881780432" lon="4.45809372585">
        <ele>0</ele>
        <time>2020-06-17T20:13:38Z</time>
      </trkpt>
      <trkpt lat="51.229892676902" lon="4.458127756364">
        <ele>0</ele>
        <time>2020-06-17T20:13:40Z</time>
      </trkpt>
      <trkpt lat="51.229901813173" lon="4.458313918363">
        <ele>0</ele>
        <time>2020-06-17T20:13:51Z</time>
      </trkpt>
      <trkpt lat="51.229999127032" lon="4.458895370766">
        <ele>4</ele>
        <time>2020-06-17T20:14:22Z</time>
      </trkpt>
      <trkpt lat="51.230007508932" lon="4.458905429046">
        <ele>3</ele>
        <time>2020-06-17T20:14:30Z</time>
      </trkpt>
      <trkpt lat="51.230186713954" lon="4.458880367165">
        <ele>1.4</ele>
        <time>2020-06-17T20:14:51Z</time>
      </trkpt>
      <trkpt lat="51.230328787159" lon="4.458860837338">
        <ele>0</ele>
        <time>2020-06-17T20:15:08Z</time>
      </trkpt>
      <trkpt lat="51.230513859511" lon="4.459207345084">
        <ele>0</ele>
        <time>2020-06-17T20:15:58Z</time>
      </trkpt>
      <trkpt lat="51.230592481733" lon="4.459912179055">
        <ele>0</ele>
        <time>2020-06-17T20:17:09Z</time>
      </trkpt>
      <trkpt lat="51.230699853872" lon="4.460581389951">
        <ele>0</ele>
        <time>2020-06-17T20:18:10Z</time>
      </trkpt>
      <trkpt lat="51.230699434777" lon="4.460680547828">
        <ele>0</ele>
        <time>2020-06-17T20:18:19Z</time>
      </trkpt>
      <trkpt lat="51.230303390002" lon="4.460939464719">
        <ele>0</ele>
        <time>2020-06-17T20:18:56Z</time>
      </trkpt>
      <trkpt lat="51.230294840464" lon="4.460943320393">
        <ele>0</ele>
        <time>2020-06-17T20:18:57Z</time>
      </trkpt>
      <trkpt lat="51.230011951339" lon="4.460960168012">
        <ele>0</ele>
        <time>2020-06-17T20:19:21Z</time>
      </trkpt>
      <trkpt lat="51.229794273396" lon="4.460968046998">
        <ele>0</ele>
        <time>2020-06-17T20:19:43Z</time>
      </trkpt>
      <trkpt lat="51.229718081925" lon="4.461028899592">
        <ele>0</ele>
        <time>2020-06-17T20:19:54Z</time>
      </trkpt>
      <trkpt lat="51.229873398532" lon="4.461338191702">
        <ele>0</ele>
        <time>2020-06-17T20:20:41Z</time>
      </trkpt>
      <trkpt lat="51.230015304099" lon="4.462014359575">
        <ele>3</ele>
        <time>2020-06-17T20:21:48Z</time>
      </trkpt>
      <trkpt lat="51.230089567733" lon="4.462118630411">
        <ele>1.2</ele>
        <time>2020-06-17T20:22:08Z</time>
      </trkpt>
      <trkpt lat="51.230122340962" lon="4.462119468601">
        <ele>2.2</ele>
        <time>2020-06-17T20:22:12Z</time>
      </trkpt>
      <trkpt lat="51.230275310637" lon="4.462019975448">
        <ele>7.2</ele>
        <time>2020-06-17T20:22:34Z</time>
      </trkpt>
      <trkpt lat="51.230338510163" lon="4.462010336263">
        <ele>8.8</ele>
        <time>2020-06-17T20:22:45Z</time>
      </trkpt>
      <trkpt lat="51.230458874247" lon="4.461921488123">
        <ele>16.6</ele>
        <time>2020-06-17T20:23:26Z</time>
      </trkpt>
      <trkpt lat="51.23068241952" lon="4.461879075709">
        <ele>12.8</ele>
        <time>2020-06-17T20:24:14Z</time>
      </trkpt>
      <trkpt lat="51.230790797487" lon="4.461833226716">
        <ele>12.2</ele>
        <time>2020-06-17T20:24:30Z</time>
      </trkpt>
      <trkpt lat="51.230945778818" lon="4.461782432402">
        <ele>6</ele>
        <time>2020-06-17T20:24:53Z</time>
      </trkpt>
      <trkpt lat="51.231096820656" lon="4.461642957586">
        <ele>0</ele>
        <time>2020-06-17T20:25:16Z</time>
      </trkpt>
      <trkpt lat="51.231242833354" lon="4.461588391417">
        <ele>0</ele>
        <time>2020-06-17T20:25:33Z</time>
      </trkpt>
      <trkpt lat="51.231311732572" lon="4.461398541382">
        <ele>0.2</ele>
        <time>2020-06-17T20:25:55Z</time>
      </trkpt>
      <trkpt lat="51.231298572989" lon="4.461013812172">
        <ele>0.2</ele>
        <time>2020-06-17T20:26:46Z</time>
      </trkpt>
      <trkpt lat="51.231322712861" lon="4.460751123426">
        <ele>0</ele>
        <time>2020-06-17T20:27:03Z</time>
      </trkpt>
      <trkpt lat="51.231365460551" lon="4.460549203455">
        <ele>1.4</ele>
        <time>2020-06-17T20:27:31Z</time>
      </trkpt>
      <trkpt lat="51.231326652354" lon="4.460524895945">
        <ele>0</ele>
        <time>2020-06-17T20:27:37Z</time>
      </trkpt>
      <trkpt lat="51.231309469459" lon="4.460506204308">
        <ele>0</ele>
        <time>2020-06-17T20:27:39Z</time>
      </trkpt>
      <trkpt lat="51.231235960196" lon="4.460417607625">
        <ele>1</ele>
        <time>2020-06-17T20:28:28Z</time>
      </trkpt>
      <trkpt lat="51.231200588578" lon="4.460392545744">
        <ele>1.2</ele>
        <time>2020-06-17T20:28:32Z</time>
      </trkpt>
      <trkpt lat="51.231159852544" lon="4.459728363988">
        <ele>5.8</ele>
        <time>2020-06-17T20:29:22Z</time>
      </trkpt>
      <trkpt lat="51.231431509923" lon="4.459722831934">
        <ele>4.2</ele>
        <time>2020-06-17T20:30:07Z</time>
      </trkpt>
      <trkpt lat="51.231451542664" lon="4.459726184694">
        <ele>4</ele>
        <time>2020-06-17T20:30:09Z</time>
      </trkpt>
      <trkpt lat="51.231730659934" lon="4.459770441126">
        <ele>3.8</ele>
        <time>2020-06-17T20:30:58Z</time>
      </trkpt>
      <trkpt lat="51.231688415158" lon="4.459582267471">
        <ele>4.4</ele>
        <time>2020-06-17T20:31:08Z</time>
      </trkpt>
      <trkpt lat="51.231682799285" lon="4.459431980004">
        <ele>1.6</ele>
        <time>2020-06-17T20:31:36Z</time>
      </trkpt>
      <trkpt lat="51.231643320536" lon="4.45922360597">
        <ele>1.4</ele>
        <time>2020-06-17T20:32:04Z</time>
      </trkpt>
      <trkpt lat="51.23152731504" lon="4.458526064252">
        <ele>1.2</ele>
        <time>2020-06-17T20:32:44Z</time>
      </trkpt>
      <trkpt lat="51.2314636126" lon="4.45847007316">
        <ele>3</ele>
        <time>2020-06-17T20:32:53Z</time>
      </trkpt>
      <trkpt lat="51.231238055671" lon="4.458377704622">
        <ele>0</ele>
        <time>2020-06-17T20:33:13Z</time>
      </trkpt>
      <trkpt lat="51.231208383745" lon="4.4581733539">
        <ele>0</ele>
        <time>2020-06-17T20:33:25Z</time>
      </trkpt>
      <trkpt lat="51.231196816723" lon="4.457989957928">
        <ele>0</ele>
        <time>2020-06-17T20:33:36Z</time>
      </trkpt>
      <trkpt lat="51.231141999097" lon="4.457519649519">
        <ele>0</ele>
        <time>2020-06-17T20:34:26Z</time>
      </trkpt>
      <trkpt lat="51.231166474245" lon="4.457369110595">
        <ele>1</ele>
        <time>2020-06-17T20:34:48Z</time>
      </trkpt>
      <trkpt lat="51.231293376211" lon="4.456654805077">
        <ele>3.6</ele>
        <time>2020-06-17T20:35:37Z</time>
      </trkpt>
      <trkpt lat="51.231297399523" lon="4.456606106238">
        <ele>3</ele>
        <time>2020-06-17T20:35:40Z</time>
      </trkpt>
      <trkpt lat="51.231238474766" lon="4.456445509034">
        <ele>9.2</ele>
        <time>2020-06-17T20:35:58Z</time>
      </trkpt>
      <trkpt lat="51.231111488981" lon="4.456235961534">
        <ele>7.8</ele>
        <time>2020-06-17T20:36:23Z</time>
      </trkpt>
      <trkpt lat="51.231097491208" lon="4.456214420051">
        <ele>7.2</ele>
        <time>2020-06-17T20:36:25Z</time>
      </trkpt>
      <trkpt lat="51.23107469244" lon="4.456184664306">
        <ele>6.4</ele>
        <time>2020-06-17T20:36:28Z</time>
      </trkpt>
      <trkpt lat="51.230809321486" lon="4.456428326139">
        <ele>12.4</ele>
        <time>2020-06-17T20:37:47Z</time>
      </trkpt>
      <trkpt lat="51.230932535416" lon="4.45607368795">
        <ele>9.6</ele>
        <time>2020-06-17T20:38:04Z</time>
      </trkpt>
      <trkpt lat="51.230616621605" lon="4.455536491979">
        <ele>19</ele>
        <time>2020-06-17T20:38:42Z</time>
      </trkpt>
      <trkpt lat="51.230210602369" lon="4.45524555623">
        <ele>26.8</ele>
        <time>2020-06-17T20:39:21Z</time>
      </trkpt>
      <trkpt lat="51.229975573893" lon="4.455170202949">
        <ele>19.6</ele>
        <time>2020-06-17T20:39:51Z</time>
      </trkpt>
      <trkpt lat="51.229770133524" lon="4.455057298756">
        <ele>14.6</ele>
        <time>2020-06-17T20:40:19Z</time>
      </trkpt>
      <trkpt lat="51.229320444589" lon="4.454981945475">
        <ele>0</ele>
        <time>2020-06-17T20:41:03Z</time>
      </trkpt>
      <trkpt lat="51.229224052739" lon="4.4549547043">
        <ele>6.6</ele>
        <time>2020-06-17T20:41:21Z</time>
      </trkpt>
      <trkpt lat="51.228781488419" lon="4.45480215372">
        <ele>3.4</ele>
        <time>2020-06-17T20:41:57Z</time>
      </trkpt>
      <trkpt lat="51.228431208818" lon="4.454812631095">
        <ele>0</ele>
        <time>2020-06-17T20:42:37Z</time>
      </trkpt>
      <trkpt lat="51.228098615026" lon="4.454906843651">
        <ele>1.4</ele>
        <time>2020-06-17T20:43:09Z</time>
      </trkpt>
      <trkpt lat="51.228040193183" lon="4.454922601623">
        <ele>0.6</ele>
        <time>2020-06-17T20:43:18Z</time>
      </trkpt>
      <trkpt lat="51.227949249568" lon="4.454930983523">
        <ele>0</ele>
        <time>2020-06-17T20:43:27Z</time>
      </trkpt>
      <trkpt lat="51.227800135567" lon="4.455225942584">
        <ele>4.6</ele>
        <time>2020-06-17T20:44:29Z</time>
      </trkpt>
      <trkpt lat="51.227921170203" lon="4.45556406843">
        <ele>0</ele>
        <time>2020-06-17T20:45:07Z</time>
      </trkpt>
      <trkpt lat="51.228017310596" lon="4.455879311689">
        <ele>0</ele>
        <time>2020-06-17T20:45:39Z</time>
      </trkpt>
      <trkpt lat="51.228081180674" lon="4.456036137038">
        <ele>0</ele>
        <time>2020-06-17T20:45:52Z</time>
      </trkpt>
      <trkpt lat="51.228244879181" lon="4.45645422621">
        <ele>1.2</ele>
        <time>2020-06-17T20:46:33Z</time>
      </trkpt>
      <trkpt lat="51.228516201284" lon="4.456997960063">
        <ele>2.8</ele>
        <time>2020-06-17T20:47:33Z</time>
      </trkpt>
      <trkpt lat="51.228553584558" lon="4.456993350018">
        <ele>2.6</ele>
        <time>2020-06-17T20:47:38Z</time>
      </trkpt>
      <trkpt lat="51.229011655393" lon="4.457003743574">
        <ele>9.4</ele>
        <time>2020-06-17T20:48:23Z</time>
      </trkpt>
      <trkpt lat="51.229272248664" lon="4.456969964517">
        <ele>10.4</ele>
        <time>2020-06-17T20:48:55Z</time>
      </trkpt>
      <trkpt lat="51.229352882542" lon="4.456949009767">
        <ele>10</ele>
        <time>2020-06-17T20:49:05Z</time>
      </trkpt>
      <trkpt lat="51.229690337836" lon="4.456822359258">
        <ele>7</ele>
        <time>2020-06-17T20:49:51Z</time>
      </trkpt>
      <trkpt lat="51.22979645269" lon="4.456964097187">
        <ele>10.2</ele>
        <time>2020-06-17T20:50:07Z</time>
      </trkpt>
      <trkpt lat="51.229898628051" lon="4.457660633077">
        <ele>2.8</ele>
        <time>2020-06-17T20:50:56Z</time>
      </trkpt>
      <trkpt lat="51.229743311444" lon="4.457958106708">
        <ele>2.6</ele>
        <time>2020-06-17T20:52:18Z</time>
      </trkpt>
      <trkpt lat="51.229745239281" lon="4.457958190527">
        <ele>2.6</ele>
        <time>2020-06-17T20:52:20Z</time>
      </trkpt>
      <trkpt lat="51.229745826014" lon="4.457958190527">
        <ele>2.6</ele>
        <time>2020-06-17T20:52:21Z</time>
      </trkpt>
    </trkseg>
  </trk>
</gpx>